createdAt,value
2018-08-13T00:00:53.870Z,15.00
2018-08-13T00:03:22.008Z,14.90
2018-08-13T00:05:50.190Z,15.00
2018-08-13T00:08:18.371Z,14.90
2018-08-13T00:10:46.861Z,14.90
2018-08-13T00:13:14.994Z,14.90
2018-08-13T00:15:43.174Z,14.80
2018-08-13T00:18:12.270Z,14.80
2018-08-13T00:20:40.438Z,14.80
2018-08-13T00:23:08.935Z,14.80
2018-08-13T00:25:37.091Z,14.80
2018-08-13T00:28:06.763Z,14.80
2018-08-13T00:30:34.952Z,14.80
2018-08-13T00:33:03.074Z,14.80
2018-08-13T00:35:31.215Z,14.80
2018-08-13T00:37:59.342Z,14.80
2018-08-13T00:40:27.547Z,14.80
2018-08-13T00:42:55.697Z,14.90
2018-08-13T00:45:23.858Z,14.90
2018-08-13T00:47:51.972Z,14.90
2018-08-13T00:50:20.111Z,14.80
2018-08-13T00:52:48.230Z,14.80
2018-08-13T00:55:16.363Z,14.80
2018-08-13T00:57:44.469Z,14.80
2018-08-13T01:00:16.201Z,14.70
2018-08-13T01:02:44.907Z,14.60
2018-08-13T01:05:13.402Z,14.60
2018-08-13T01:07:41.603Z,14.60
2018-08-13T01:10:12.126Z,14.50
2018-08-13T01:12:40.562Z,14.50
2018-08-13T01:15:10.746Z,14.40
2018-08-13T01:17:39.572Z,14.30
2018-08-13T01:20:09.694Z,14.20
2018-08-13T01:22:37.854Z,14.30
2018-08-13T01:25:07.483Z,14.30
2018-08-13T01:27:35.625Z,14.30
2018-08-13T01:30:03.855Z,14.20
2018-08-13T01:32:31.989Z,14.10
2018-08-13T01:35:00.148Z,13.90
2018-08-13T01:37:28.734Z,13.90
2018-08-13T01:39:57.642Z,13.90
2018-08-13T01:42:26.350Z,13.80
2018-08-13T01:44:54.498Z,13.90
2018-08-13T01:47:22.633Z,13.80
2018-08-13T01:49:50.771Z,13.80
2018-08-13T01:52:19.418Z,13.70
2018-08-13T01:54:47.541Z,13.70
2018-08-13T01:57:15.766Z,13.70
2018-08-13T01:59:43.890Z,13.60
2018-08-13T02:02:13.038Z,13.70
2018-08-13T02:04:41.182Z,13.70
2018-08-13T02:07:09.337Z,13.70
2018-08-13T02:09:39.195Z,13.70
2018-08-13T02:12:07.814Z,13.70
2018-08-13T02:14:35.946Z,13.70
2018-08-13T02:17:04.278Z,13.70
2018-08-13T02:19:32.683Z,13.70
2018-08-13T02:22:00.820Z,13.60
2018-08-13T02:24:29.234Z,13.70
2018-08-13T02:26:57.624Z,13.70
2018-08-13T02:29:26.502Z,13.60
2018-08-13T02:31:54.998Z,13.60
2018-08-13T02:34:23.123Z,13.50
2018-08-13T02:36:51.288Z,13.50
2018-08-13T02:39:19.537Z,13.60
2018-08-13T02:41:47.599Z,13.60
2018-08-13T02:44:15.743Z,13.60
2018-08-13T02:46:43.879Z,13.70
2018-08-13T02:49:11.987Z,13.70
2018-08-13T02:51:40.131Z,13.60
2018-08-13T02:54:08.296Z,13.60
2018-08-13T02:56:36.428Z,13.60
2018-08-13T02:59:04.546Z,13.50
2018-08-13T03:01:32.654Z,13.60
2018-08-13T03:04:00.790Z,13.60
2018-08-13T03:06:28.924Z,13.70
2018-08-13T03:08:57.347Z,13.70
2018-08-13T03:11:25.475Z,13.70
2018-08-13T03:13:53.647Z,13.70
2018-08-13T03:16:21.831Z,13.70
2018-08-13T03:18:50.029Z,13.70
2018-08-13T03:21:18.441Z,13.60
2018-08-13T03:23:46.600Z,13.40
2018-08-13T03:26:14.731Z,13.40
2018-08-13T03:28:42.845Z,13.50
2018-08-13T03:31:11.152Z,13.50
2018-08-13T03:33:39.283Z,13.50
2018-08-13T03:36:07.662Z,13.50
2018-08-13T03:38:35.789Z,13.60
2018-08-13T03:41:03.902Z,13.60
2018-08-13T03:43:32.043Z,13.60
2018-08-13T03:46:00.172Z,13.70
2018-08-13T03:48:28.286Z,13.70
2018-08-13T03:50:56.406Z,13.60
2018-08-13T03:53:24.585Z,13.70
2018-08-13T03:55:52.736Z,13.70
2018-08-13T03:58:20.944Z,13.60
2018-08-13T04:00:49.058Z,13.50
2018-08-13T04:03:17.200Z,13.50
2018-08-13T04:05:45.305Z,13.50
2018-08-13T04:08:13.436Z,13.60
2018-08-13T04:10:41.558Z,13.70
2018-08-13T04:13:09.689Z,13.70
2018-08-13T04:15:37.838Z,13.80
2018-08-13T04:18:07.262Z,13.70
2018-08-13T04:20:35.533Z,13.70
2018-08-13T04:23:03.658Z,13.80
2018-08-13T04:25:31.779Z,13.90
2018-08-13T04:27:59.934Z,13.90
2018-08-13T04:30:28.061Z,13.90
2018-08-13T04:32:56.279Z,13.90
2018-08-13T04:35:24.416Z,13.90
2018-08-13T04:37:52.550Z,13.90
2018-08-13T04:40:20.686Z,13.90
2018-08-13T04:42:48.850Z,13.90
2018-08-13T04:45:16.970Z,14.00
2018-08-13T04:47:55.656Z,13.90
2018-08-13T04:50:23.875Z,13.90
2018-08-13T04:52:52.051Z,14.00
2018-08-13T04:55:20.969Z,14.00
2018-08-13T04:57:49.103Z,14.00
2018-08-13T05:00:17.225Z,14.10
2018-08-13T05:02:45.354Z,14.10
2018-08-13T05:05:13.477Z,14.10
2018-08-13T05:07:41.616Z,14.10
2018-08-13T05:10:10.953Z,14.20
2018-08-13T05:12:39.802Z,14.30
2018-08-13T05:15:09.088Z,14.40
2018-08-13T05:17:37.263Z,14.50
2018-08-13T05:20:05.943Z,14.60
2018-08-13T05:22:34.186Z,14.70
2018-08-13T05:25:02.439Z,14.80
2018-08-13T05:27:30.711Z,14.90
2018-08-13T05:29:58.941Z,14.90
2018-08-13T05:32:27.099Z,14.90
2018-08-13T05:34:55.237Z,14.90
2018-08-13T05:37:23.351Z,15.10
2018-08-13T05:39:51.818Z,15.10
2018-08-13T05:42:19.972Z,15.40
2018-08-13T05:44:48.130Z,15.70
2018-08-13T05:47:16.289Z,15.90
2018-08-13T05:49:44.431Z,16.10
2018-08-13T05:52:12.591Z,16.40
2018-08-13T05:54:40.755Z,16.70
2018-08-13T05:57:08.893Z,17.00
2018-08-13T05:59:37.771Z,17.30
2018-08-13T06:02:06.039Z,17.60
2018-08-13T06:04:34.328Z,17.90
2018-08-13T06:07:02.451Z,18.00
2018-08-13T06:09:30.583Z,18.20
2018-08-13T06:11:58.695Z,18.30
2018-08-13T06:14:26.830Z,18.40
2018-08-13T06:16:54.958Z,18.60
2018-08-13T06:19:23.092Z,18.80
2018-08-13T06:21:51.214Z,18.80
2018-08-13T06:24:19.437Z,19.00
2018-08-13T06:26:47.658Z,19.20
2018-08-13T06:29:15.799Z,19.60
2018-08-13T06:31:43.923Z,19.90
2018-08-13T06:34:12.210Z,20.30
2018-08-13T06:36:40.326Z,20.60
2018-08-13T06:39:09.607Z,20.80
2018-08-13T06:41:37.729Z,20.80
2018-08-13T06:44:05.967Z,20.90
2018-08-13T06:46:34.438Z,20.90
2018-08-13T06:49:02.590Z,20.90
2018-08-13T06:51:30.721Z,21.00
2018-08-13T06:53:58.860Z,21.10
2018-08-13T06:56:26.984Z,21.20
2018-08-13T06:58:55.120Z,21.30
2018-08-13T07:01:23.240Z,21.50
2018-08-13T07:03:51.375Z,21.70
2018-08-13T07:06:19.506Z,22.10
2018-08-13T07:08:47.639Z,22.20
2018-08-13T07:11:15.753Z,22.20
2018-08-13T07:13:43.906Z,22.30
2018-08-13T07:16:12.329Z,22.30
2018-08-13T07:18:40.452Z,22.40
2018-08-13T07:21:08.616Z,22.50
2018-08-13T07:23:36.743Z,22.50
2018-08-13T07:26:04.871Z,22.50
2018-08-13T07:28:32.994Z,22.50
2018-08-13T07:31:01.127Z,22.50
2018-08-13T07:33:29.245Z,22.50
2018-08-13T07:35:57.369Z,22.50
2018-08-13T07:38:25.479Z,22.40
2018-08-13T07:40:53.678Z,22.40
2018-08-13T07:43:21.814Z,22.40
2018-08-13T07:45:49.959Z,22.50
2018-08-13T07:48:18.106Z,22.50
2018-08-13T07:50:46.232Z,22.60
2018-08-13T07:53:14.339Z,22.70
2018-08-13T07:55:42.484Z,22.80
2018-08-13T07:58:10.598Z,22.90
2018-08-13T08:00:38.734Z,22.90
2018-08-13T08:03:06.860Z,22.90
2018-08-13T08:05:34.994Z,23.00
2018-08-13T08:08:03.158Z,23.00
2018-08-13T08:10:31.335Z,23.10
2018-08-13T08:12:59.442Z,23.00
2018-08-13T08:15:27.558Z,23.00
2018-08-13T08:17:55.667Z,22.90
2018-08-13T08:20:23.800Z,22.90
2018-08-13T08:22:51.914Z,22.80
2018-08-13T08:25:21.431Z,22.80
2018-08-13T08:27:49.566Z,22.70
2018-08-13T08:30:17.706Z,22.80
2018-08-13T08:32:45.842Z,22.70
2018-08-13T08:35:15.339Z,22.70
2018-08-13T08:37:43.503Z,22.60
2018-08-13T08:40:16.411Z,22.60
2018-08-13T08:42:44.581Z,22.50
2018-08-13T08:45:14.702Z,22.40
2018-08-13T08:47:43.367Z,22.40
2018-08-13T08:50:11.654Z,22.30
2018-08-13T08:52:39.786Z,22.20
2018-08-13T08:55:07.945Z,22.00
2018-08-13T08:57:36.081Z,21.90
2018-08-13T09:00:05.234Z,21.80
2018-08-13T09:02:33.377Z,21.70
2018-08-13T09:05:01.499Z,21.60
2018-08-13T09:07:29.630Z,21.40
2018-08-13T09:09:57.759Z,21.40
2018-08-13T09:12:25.880Z,21.30
2018-08-13T09:14:53.995Z,21.20
2018-08-13T09:17:26.714Z,21.20
2018-08-13T09:21:08.186Z,21.30
2018-08-13T09:23:47.671Z,21.40
2018-08-13T09:26:27.162Z,21.40
2018-08-13T09:29:06.699Z,21.30
2018-08-13T09:32:16.210Z,21.10
2018-08-13T09:34:56.011Z,20.90
2018-08-13T09:37:24.172Z,20.80
2018-08-13T09:39:52.328Z,20.80
2018-08-13T09:42:20.407Z,20.80
2018-08-13T09:44:48.510Z,20.80
2018-08-13T09:47:16.958Z,20.80
2018-08-13T09:49:45.059Z,20.90
2018-08-13T09:52:13.176Z,20.90
2018-08-13T09:54:41.575Z,21.00
2018-08-13T09:57:09.746Z,21.10
2018-08-13T09:59:37.850Z,21.10
2018-08-13T10:02:05.984Z,21.10
2018-08-13T10:04:34.091Z,21.20
2018-08-13T10:07:02.375Z,21.30
2018-08-13T10:09:30.502Z,21.30
2018-08-13T10:11:58.630Z,21.40
2018-08-13T10:14:33.797Z,21.40
2018-08-13T10:17:01.954Z,21.40
2018-08-13T10:19:30.071Z,21.40
2018-08-13T10:21:58.313Z,21.30
2018-08-13T10:24:26.859Z,21.30
2018-08-13T10:26:54.974Z,21.30
2018-08-13T10:29:23.094Z,21.30
2018-08-13T10:31:51.211Z,21.40
2018-08-13T10:34:19.439Z,21.40
2018-08-13T10:36:47.560Z,21.50
2018-08-13T10:39:15.719Z,21.50
2018-08-13T10:41:43.835Z,21.50
2018-08-13T10:44:12.122Z,21.40
2018-08-13T10:46:40.242Z,21.50
2018-08-13T10:49:08.460Z,21.60
2018-08-13T10:51:36.580Z,21.70
2018-08-13T10:54:04.703Z,21.80
2018-08-13T10:56:32.832Z,21.90
2018-08-13T10:59:01.027Z,21.90
2018-08-13T11:01:29.135Z,22.00
2018-08-13T11:03:57.260Z,22.10
2018-08-13T11:06:25.438Z,22.30
2018-08-13T11:08:53.578Z,22.30
2018-08-13T11:11:21.710Z,22.30
2018-08-13T11:13:50.627Z,22.30
2018-08-13T11:16:18.751Z,22.20
2018-08-13T11:18:46.893Z,22.20
2018-08-13T11:21:15.007Z,22.30
2018-08-13T11:23:43.149Z,22.30
2018-08-13T11:26:11.335Z,22.30
2018-08-13T11:28:39.517Z,22.20
2018-08-13T11:31:07.824Z,22.20
2018-08-13T11:33:36.007Z,22.20
2018-08-13T11:36:04.224Z,22.30
2018-08-13T11:38:33.533Z,22.40
2018-08-13T11:41:01.680Z,22.30
2018-08-13T11:43:29.879Z,22.30
2018-08-13T11:45:58.026Z,22.30
2018-08-13T11:48:26.157Z,22.20
2018-08-13T11:50:54.262Z,22.20
2018-08-13T11:53:22.400Z,22.20
2018-08-13T11:55:50.675Z,22.10
2018-08-13T11:58:18.782Z,22.10
2018-08-13T12:00:47.783Z,22.00
2018-08-13T12:03:15.910Z,22.00
2018-08-13T12:05:44.027Z,22.00
2018-08-13T12:08:12.996Z,22.10
2018-08-13T12:11:18.395Z,22.20
2018-08-13T12:13:46.998Z,22.50
2018-08-13T12:16:15.125Z,23.00
2018-08-13T12:18:46.925Z,23.20
2018-08-13T12:21:15.551Z,23.20
2018-08-13T12:23:43.708Z,23.30
2018-08-13T12:26:11.974Z,23.20
2018-08-13T12:28:40.115Z,23.30
2018-08-13T12:31:08.246Z,23.60
2018-08-13T12:33:36.455Z,23.80
2018-08-13T12:36:04.587Z,23.80
2018-08-13T12:38:32.753Z,23.90
2018-08-13T12:41:00.952Z,24.20
2018-08-13T12:43:29.051Z,24.40
2018-08-13T12:45:57.282Z,24.80
2018-08-13T12:48:25.438Z,24.80
2018-08-13T12:50:53.666Z,24.90
2018-08-13T12:53:21.851Z,25.00
2018-08-13T12:55:50.062Z,24.90
2018-08-13T12:58:18.209Z,24.60
2018-08-13T13:00:50.566Z,24.40
2018-08-13T13:03:18.913Z,24.50
2018-08-13T13:05:47.050Z,24.60
2018-08-13T13:08:15.178Z,24.60
2018-08-13T13:10:43.319Z,24.70
2018-08-13T13:13:11.435Z,24.60
2018-08-13T13:15:39.578Z,24.60
2018-08-13T13:18:07.697Z,24.50
2018-08-13T13:20:35.934Z,24.60
2018-08-13T13:23:03.955Z,24.50
2018-08-13T13:25:32.101Z,24.50
2018-08-13T13:28:00.250Z,24.50
2018-08-13T13:30:28.417Z,24.50
2018-08-13T13:32:56.533Z,24.50
2018-08-13T13:35:24.684Z,24.50
2018-08-13T13:37:52.816Z,24.50
2018-08-13T13:40:20.968Z,24.30
2018-08-13T13:42:49.274Z,24.20
2018-08-13T13:45:17.810Z,24.20
2018-08-13T13:47:46.070Z,24.20
2018-08-13T13:50:15.447Z,24.10
2018-08-13T13:52:43.969Z,24.10
2018-08-13T13:55:12.233Z,24.00
2018-08-13T13:57:40.363Z,24.00
2018-08-13T14:00:13.486Z,23.90
2018-08-13T14:02:41.898Z,23.90
2018-08-13T14:05:10.116Z,23.70
2018-08-13T14:07:38.235Z,23.60
2018-08-13T14:10:07.849Z,23.60
2018-08-13T14:12:35.968Z,23.50
2018-08-13T14:15:04.898Z,23.30
2018-08-13T14:17:33.166Z,23.30
2018-08-13T14:20:01.189Z,23.20
2018-08-13T14:22:29.298Z,23.20
2018-08-13T14:24:57.477Z,23.10
2018-08-13T14:27:25.595Z,22.90
2018-08-13T14:29:53.730Z,22.80
2018-08-13T14:32:21.863Z,22.90
2018-08-13T14:34:50.086Z,22.80
2018-08-13T14:37:18.147Z,22.60
2018-08-13T14:39:46.277Z,22.40
2018-08-13T14:42:14.411Z,22.40
2018-08-13T14:44:42.593Z,22.50
2018-08-13T14:47:11.025Z,22.70
2018-08-13T14:49:39.142Z,22.90
2018-08-13T14:52:07.299Z,23.30
2018-08-13T14:54:35.426Z,23.80
2018-08-13T14:57:03.568Z,23.40
2018-08-13T14:59:31.761Z,23.00
2018-08-13T15:01:59.890Z,22.80
2018-08-13T15:04:28.018Z,22.70
2018-08-13T15:06:56.147Z,22.70
2018-08-13T15:09:24.262Z,22.70
2018-08-13T15:11:52.646Z,22.70
2018-08-13T15:14:20.835Z,22.80
2018-08-13T15:16:48.975Z,22.80
2018-08-13T15:19:17.163Z,22.60
2018-08-13T15:21:45.270Z,22.50
2018-08-13T15:24:13.406Z,22.40
2018-08-13T15:26:41.618Z,22.30
2018-08-13T15:29:09.744Z,22.30
2018-08-13T15:31:37.875Z,22.20
2018-08-13T15:34:06.211Z,22.20
2018-08-13T15:36:34.470Z,22.10
2018-08-13T15:39:02.654Z,21.90
2018-08-13T15:41:30.787Z,21.80
2018-08-13T15:43:58.905Z,21.80
2018-08-13T15:46:27.029Z,21.70
2018-08-13T15:48:55.155Z,21.70
2018-08-13T15:51:23.298Z,21.70
2018-08-13T15:53:51.416Z,21.60
2018-08-13T15:56:19.556Z,21.60
2018-08-13T15:58:47.689Z,21.60
2018-08-13T16:01:15.826Z,21.70
2018-08-13T16:03:43.964Z,21.80
2018-08-13T16:06:12.126Z,22.00
2018-08-13T16:08:40.246Z,22.20
2018-08-13T16:11:08.792Z,22.20
2018-08-13T16:13:36.910Z,22.10
2018-08-13T16:16:05.107Z,22.00
2018-08-13T16:18:33.235Z,21.90
2018-08-13T16:21:03.339Z,21.60
2018-08-13T16:23:31.944Z,21.60
2018-08-13T16:26:01.001Z,21.60
2018-08-13T16:28:30.004Z,21.80
2018-08-13T16:30:59.417Z,21.80
2018-08-13T16:33:27.801Z,21.90
2018-08-13T16:35:57.283Z,22.00
2018-08-13T16:38:27.161Z,22.30
2018-08-13T16:40:56.270Z,22.40
2018-08-13T16:43:24.581Z,22.60
2018-08-13T16:45:53.264Z,22.70
2018-08-13T16:48:21.523Z,22.60
2018-08-13T16:50:50.100Z,22.60
2018-08-13T16:53:18.317Z,22.50
2018-08-13T16:55:46.919Z,22.30
2018-08-13T16:58:15.244Z,22.00
2018-08-13T17:00:43.593Z,21.80
2018-08-13T17:03:13.197Z,21.70
2018-08-13T17:05:42.460Z,21.70
2018-08-13T17:08:11.813Z,21.60
2018-08-13T17:10:40.576Z,21.60
2018-08-13T17:13:09.034Z,21.50
2018-08-13T17:15:37.406Z,21.50
2018-08-13T17:18:06.087Z,21.30
2018-08-13T17:20:37.250Z,21.30
2018-08-13T17:23:06.478Z,21.30
2018-08-13T17:25:35.297Z,21.30
2018-08-13T17:28:03.558Z,21.20
2018-08-13T17:30:31.753Z,21.20
2018-08-13T17:33:00.800Z,21.20
2018-08-13T17:35:32.085Z,21.20
2018-08-13T17:38:00.663Z,21.10
2018-08-13T17:40:29.221Z,21.10
2018-08-13T17:42:57.502Z,21.10
2018-08-13T17:45:25.699Z,21.10
2018-08-13T17:47:53.826Z,21.10
2018-08-13T17:50:22.347Z,21.10
2018-08-13T17:52:50.503Z,21.20
2018-08-13T17:55:18.821Z,21.20
2018-08-13T17:57:47.132Z,21.20
2018-08-13T18:00:17.576Z,21.10
2018-08-13T18:02:45.739Z,21.10
2018-08-13T18:05:16.079Z,21.00
2018-08-13T18:07:44.370Z,21.00
2018-08-13T18:10:15.547Z,21.00
2018-08-13T18:12:43.684Z,20.90
2018-08-13T18:15:14.195Z,20.90
2018-08-13T18:17:42.723Z,20.90
2018-08-13T18:20:11.365Z,20.90
2018-08-13T18:22:39.503Z,20.80
2018-08-13T18:25:09.159Z,20.70
2018-08-13T18:27:37.512Z,20.70
2018-08-13T18:30:07.997Z,20.60
2018-08-13T18:32:36.268Z,20.60
2018-08-13T18:35:04.975Z,20.50
2018-08-13T18:37:33.133Z,20.40
2018-08-13T18:40:01.281Z,20.40
2018-08-13T18:42:29.407Z,20.30
2018-08-13T18:44:57.563Z,20.30
2018-08-13T18:47:25.681Z,20.30
2018-08-13T18:49:53.821Z,20.20
2018-08-13T18:52:21.951Z,20.20
2018-08-13T18:54:50.085Z,20.10
2018-08-13T18:57:18.224Z,20.10
2018-08-13T18:59:46.359Z,20.10
2018-08-13T19:02:14.487Z,20.00
2018-08-13T19:04:42.647Z,20.00
2018-08-13T19:07:10.875Z,20.00
2018-08-13T19:09:39.016Z,20.10
2018-08-13T19:12:07.168Z,20.00
2018-08-13T19:14:35.300Z,20.00
2018-08-13T19:17:03.433Z,20.00
2018-08-13T19:19:31.571Z,20.00
2018-08-13T19:21:59.797Z,19.90
2018-08-13T19:24:27.950Z,19.80
2018-08-13T19:26:56.073Z,19.70
2018-08-13T19:29:24.223Z,19.60
2018-08-13T19:31:52.351Z,19.50
2018-08-13T19:34:20.487Z,19.50
2018-08-13T19:36:48.600Z,19.40
2018-08-13T19:39:16.738Z,19.30
2018-08-13T19:41:44.875Z,19.30
2018-08-13T19:44:13.003Z,19.20
2018-08-13T19:46:41.129Z,19.20
2018-08-13T19:49:09.244Z,19.20
2018-08-13T19:51:38.334Z,19.10
2018-08-13T19:54:07.766Z,19.10
2018-08-13T19:56:35.982Z,19.00
2018-08-13T19:59:04.145Z,19.00
2018-08-13T20:01:32.427Z,18.90
2018-08-13T20:04:00.555Z,18.90
2018-08-13T20:06:28.688Z,18.80
2018-08-13T20:08:56.831Z,18.80
2018-08-13T20:11:24.971Z,18.80
2018-08-13T20:13:53.092Z,18.70
2018-08-13T20:16:21.244Z,18.60
2018-08-13T20:18:49.367Z,18.50
2018-08-13T20:21:17.507Z,18.40
2018-08-13T20:23:45.652Z,18.40
2018-08-13T20:26:13.762Z,18.40
2018-08-13T20:28:41.876Z,18.30
2018-08-13T20:31:10.016Z,18.30
2018-08-13T20:33:38.134Z,18.30
2018-08-13T20:36:06.263Z,18.20
2018-08-13T20:38:34.380Z,18.20
2018-08-13T20:41:02.523Z,18.10
2018-08-13T20:43:30.650Z,18.10
2018-08-13T20:45:58.802Z,18.10
2018-08-13T20:48:26.917Z,18.00
2018-08-13T20:50:55.039Z,18.00
2018-08-13T20:53:23.151Z,18.00
2018-08-13T20:55:51.280Z,17.90
2018-08-13T20:58:19.834Z,17.90
2018-08-13T21:00:47.971Z,17.90
2018-08-13T21:03:16.096Z,17.80
2018-08-13T21:05:44.227Z,17.80
2018-08-13T21:08:12.346Z,17.80
2018-08-13T21:10:40.496Z,17.90
2018-08-13T21:13:08.687Z,17.80
2018-08-13T21:15:36.814Z,17.80
2018-08-13T21:18:05.013Z,17.90
2018-08-13T21:20:33.150Z,17.80
2018-08-13T21:23:01.255Z,17.80
2018-08-13T21:25:29.620Z,17.80
2018-08-13T21:27:57.709Z,17.80
2018-08-13T21:30:25.836Z,17.80
2018-08-13T21:32:53.958Z,17.80
2018-08-13T21:35:23.734Z,17.80
2018-08-13T21:37:52.171Z,17.70
2018-08-13T21:40:20.402Z,17.60
2018-08-13T21:42:49.124Z,17.70
2018-08-13T21:45:17.247Z,17.70
2018-08-13T21:47:45.502Z,17.60
2018-08-13T21:50:17.886Z,17.70
2018-08-13T21:52:46.310Z,17.60
2018-08-13T21:55:14.436Z,17.70
2018-08-13T21:57:42.578Z,17.70
2018-08-13T22:00:21.307Z,17.70
2018-08-13T22:02:49.442Z,17.80
2018-08-13T22:05:17.686Z,17.80
2018-08-13T22:07:46.054Z,17.80
2018-08-13T22:10:14.181Z,17.80
2018-08-13T22:12:42.303Z,17.90
2018-08-13T22:15:22.118Z,17.80
2018-08-13T22:17:50.239Z,17.80
2018-08-13T22:20:18.411Z,17.80
2018-08-13T22:22:46.954Z,17.70
2018-08-13T22:25:17.440Z,17.70
2018-08-13T22:27:45.575Z,17.70
2018-08-13T22:30:13.696Z,17.60
2018-08-13T22:32:41.811Z,17.50
2018-08-13T22:35:10.404Z,17.50
2018-08-13T22:37:40.168Z,17.50
2018-08-13T22:40:12.718Z,17.50
2018-08-13T22:42:41.590Z,17.50
2018-08-13T22:45:09.715Z,17.50
2018-08-13T22:47:38.822Z,17.50
2018-08-13T22:50:08.553Z,17.50
2018-08-13T22:52:37.048Z,17.50
2018-08-13T22:55:06.583Z,17.50
2018-08-13T22:57:34.716Z,17.40
2018-08-13T23:00:02.956Z,17.40
2018-08-13T23:02:31.099Z,17.40
2018-08-13T23:04:59.236Z,17.40
2018-08-13T23:07:27.351Z,17.40
2018-08-13T23:09:55.483Z,17.40
2018-08-13T23:12:23.690Z,17.30
2018-08-13T23:14:51.837Z,17.30
2018-08-13T23:17:19.975Z,17.30
2018-08-13T23:19:48.106Z,17.40
2018-08-13T23:23:00.539Z,17.40
2018-08-13T23:25:29.317Z,17.40
2018-08-13T23:27:58.533Z,17.30
2018-08-13T23:30:26.721Z,17.40
2018-08-13T23:32:55.704Z,17.40
2018-08-13T23:35:24.663Z,17.30
2018-08-13T23:37:53.263Z,17.30
2018-08-13T23:40:21.538Z,17.30
2018-08-13T23:42:49.675Z,17.40
2018-08-13T23:45:19.826Z,17.30
2018-08-13T23:47:47.983Z,17.30
2018-08-13T23:50:17.974Z,17.30
2018-08-13T23:52:46.456Z,17.30
2018-08-13T23:55:16.759Z,17.30
2018-08-13T23:57:44.954Z,17.30
